sensor_id;sensor_type;location;lat;lon;timestamp;pressure;altitude;pressure_sealevel;temperature;humidity
6136;BME280;24008;42.664;23.372;2023-05-09T00:00:17;95026.91;;;12.49;100.00
6136;BME280;24008;42.664;23.372;2023-05-09T00:02:44;95037.47;;;12.46;100.00
6136;BME280;24008;42.664;23.372;2023-05-09T00:05:12;94863.72;;;11.41;100.00
6136;BME280;24008;42.664;23.372;2023-05-09T00:07:39;94973.19;;;12.12;100.00
6136;BME280;24008;42.664;23.372;2023-05-09T00:10:06;94973.78;;;12.06;100.00
6136;BME280;24008;42.664;23.372;2023-05-09T00:12:34;94822.75;;;11.14;100.00
6136;BME280;24008;42.664;23.372;2023-05-09T00:15:02;94868.91;;;11.49;100.00
6136;BME280;24008;42.664;23.372;2023-05-09T00:17:29;95028.81;;;12.47;100.00
6136;BME280;24008;42.664;23.372;2023-05-09T00:19:56;94915.41;;;11.82;100.00
6136;BME280;24008;42.664;23.372;2023-05-09T00:22:26;95027.34;;;12.44;100.00
6136;BME280;24008;42.664;23.372;2023-05-09T00:24:53;94871.41;;;11.41;100.00
6136;BME280;24008;42.664;23.372;2023-05-09T00:27:19;94985.00;;;12.22;100.00
6136;BME280;24008;42.664;23.372;2023-05-09T00:29:48;94898.94;;;11.57;100.00
6136;BME280;24008;42.664;23.372;2023-05-09T00:32:14;94976.56;;;12.12;100.00
6136;BME280;24008;42.664;23.372;2023-05-09T00:34:41;94991.66;;;12.33;100.00
6136;BME280;24008;42.664;23.372;2023-05-09T00:37:08;95010.31;;;12.53;100.00
6136;BME280;24008;42.664;23.372;2023-05-09T00:39:34;94930.84;;;11.90;100.00
6136;BME280;24008;42.664;23.372;2023-05-09T00:42:01;95024.44;;;12.57;100.00
6136;BME280;24008;42.664;23.372;2023-05-09T00:44:29;95031.16;;;12.58;100.00
6136;BME280;24008;42.664;23.372;2023-05-09T00:46:57;95029.19;;;12.52;100.00
6136;BME280;24008;42.664;23.372;2023-05-09T00:49:24;95017.75;;;12.46;100.00
6136;BME280;24008;42.664;23.372;2023-05-09T00:51:51;94832.53;;;11.28;100.00
6136;BME280;24008;42.664;23.372;2023-05-09T00:54:19;95019.81;;;12.43;100.00
6136;BME280;24008;42.664;23.372;2023-05-09T00:56:46;94891.69;;;11.52;100.00
6136;BME280;24008;42.664;23.372;2023-05-09T00:59:13;95018.22;;;12.42;100.00
6136;BME280;24008;42.664;23.372;2023-05-09T01:01:40;95014.84;;;12.41;99.99
6136;BME280;24008;42.664;23.372;2023-05-09T01:04:08;94793.66;;;10.97;99.55
6136;BME280;24008;42.664;23.372;2023-05-09T01:06:40;95021.59;;;12.42;100.00
6136;BME280;24008;42.664;23.372;2023-05-09T01:09:22;95029.91;;;12.44;99.59
6136;BME280;24008;42.664;23.372;2023-05-09T01:11:58;94952.75;;;12.02;98.88
6136;BME280;24008;42.664;23.372;2023-05-09T01:14:36;94959.28;;;12.14;97.91
6136;BME280;24008;42.664;23.372;2023-05-09T01:17:09;94937.00;;;11.97;96.28
6136;BME280;24008;42.664;23.372;2023-05-09T01:19:58;95022.81;;;12.56;95.47
6136;BME280;24008;42.664;23.372;2023-05-09T01:22:29;95022.53;;;12.59;94.76
6136;BME280;24008;42.664;23.372;2023-05-09T01:25:19;94938.41;;;12.09;94.13
6136;BME280;24008;42.664;23.372;2023-05-09T01:27:56;95016.59;;;12.58;94.38
6136;BME280;24008;42.664;23.372;2023-05-09T01:30:25;95018.34;;;12.58;94.18
6136;BME280;24008;42.664;23.372;2023-05-09T01:32:58;94959.09;;;12.25;93.81
6136;BME280;24008;42.664;23.372;2023-05-09T01:35:28;95015.50;;;12.61;93.62
6136;BME280;24008;42.664;23.372;2023-05-09T01:37:56;95021.81;;;12.67;93.18
6136;BME280;24008;42.664;23.372;2023-05-09T01:40:28;95028.41;;;12.69;92.43
6136;BME280;24008;42.664;23.372;2023-05-09T01:42:58;95014.63;;;12.70;91.52
6136;BME280;24008;42.664;23.372;2023-05-09T01:45:29;95014.06;;;12.76;91.21
6136;BME280;24008;42.664;23.372;2023-05-09T01:47:57;95020.47;;;12.80;90.11
6136;BME280;24008;42.664;23.372;2023-05-09T01:50:25;94901.66;;;12.01;89.62
6136;BME280;24008;42.664;23.372;2023-05-09T01:52:55;95020.78;;;12.77;89.63
6136;BME280;24008;42.664;23.372;2023-05-09T01:55:25;94985.34;;;12.55;89.97
6136;BME280;24008;42.664;23.372;2023-05-09T01:57:53;95011.25;;;12.70;90.40
6136;BME280;24008;42.664;23.372;2023-05-09T02:00:21;95025.91;;;12.77;91.17
6136;BME280;24008;42.664;23.372;2023-05-09T02:02:51;95024.31;;;12.76;90.95
6136;BME280;24008;42.664;23.372;2023-05-09T02:05:18;95021.38;;;12.71;90.63
6136;BME280;24008;42.664;23.372;2023-05-09T02:07:47;94990.75;;;12.52;90.75
6136;BME280;24008;42.664;23.372;2023-05-09T02:10:15;95028.09;;;12.72;91.08
6136;BME280;24008;42.664;23.372;2023-05-09T02:12:41;95024.59;;;12.73;91.99
6136;BME280;24008;42.664;23.372;2023-05-09T02:15:09;95024.88;;;12.70;92.53
6136;BME280;24008;42.664;23.372;2023-05-09T02:17:36;95025.69;;;12.71;93.48
6136;BME280;24008;42.664;23.372;2023-05-09T02:20:06;95018.13;;;12.69;94.01
6136;BME280;24008;42.664;23.372;2023-05-09T02:22:34;95019.09;;;12.68;94.97
6136;BME280;24008;42.664;23.372;2023-05-09T02:25:01;95014.94;;;12.67;94.87
6136;BME280;24008;42.664;23.372;2023-05-09T02:27:47;94992.38;;;12.53;94.59
6136;BME280;24008;42.664;23.372;2023-05-09T02:30:17;95023.56;;;12.66;95.30
6136;BME280;24008;42.664;23.372;2023-05-09T02:32:49;95016.75;;;12.57;96.32
6136;BME280;24008;42.664;23.372;2023-05-09T02:35:19;95015.78;;;12.58;96.79
6136;BME280;24008;42.664;23.372;2023-05-09T02:37:47;95001.06;;;12.42;97.23
6136;BME280;24008;42.664;23.372;2023-05-09T02:40:14;95019.63;;;12.54;98.08
6136;BME280;24008;42.664;23.372;2023-05-09T02:42:41;95014.50;;;12.54;98.20
6136;BME280;24008;42.664;23.372;2023-05-09T02:45:08;95012.72;;;12.54;98.09
6136;BME280;24008;42.664;23.372;2023-05-09T02:47:36;95019.03;;;12.60;97.64
6136;BME280;24008;42.664;23.372;2023-05-09T02:50:03;94988.75;;;12.46;96.14
6136;BME280;24008;42.664;23.372;2023-05-09T02:52:32;95020.34;;;12.64;92.71
6136;BME280;24008;42.664;23.372;2023-05-09T02:54:58;95025.69;;;12.71;91.89
6136;BME280;24008;42.664;23.372;2023-05-09T02:57:25;95008.75;;;12.60;91.37
6136;BME280;24008;42.664;23.372;2023-05-09T02:59:52;95042.53;;;12.73;91.31
6136;BME280;24008;42.664;23.372;2023-05-09T03:02:19;95025.53;;;12.72;91.32
6136;BME280;24008;42.664;23.372;2023-05-09T03:04:45;95024.59;;;12.73;91.37
6136;BME280;24008;42.664;23.372;2023-05-09T03:07:12;95032.28;;;12.73;91.12
6136;BME280;24008;42.664;23.372;2023-05-09T03:09:40;95035.13;;;12.70;91.58
6136;BME280;24008;42.664;23.372;2023-05-09T03:12:07;95010.59;;;12.50;91.96
6136;BME280;24008;42.664;23.372;2023-05-09T03:14:34;95037.03;;;12.68;92.47
6136;BME280;24008;42.664;23.372;2023-05-09T03:17:01;95039.78;;;12.67;92.65
6136;BME280;24008;42.664;23.372;2023-05-09T03:19:27;95042.34;;;12.67;93.26
6136;BME280;24008;42.664;23.372;2023-05-09T03:21:54;95047.59;;;12.65;94.29
6136;BME280;24008;42.664;23.372;2023-05-09T03:24:21;95054.91;;;12.60;95.17
6136;BME280;24008;42.664;23.372;2023-05-09T03:26:49;95063.06;;;12.55;96.02
6136;BME280;24008;42.664;23.372;2023-05-09T03:29:15;95039.66;;;12.41;96.60
6136;BME280;24008;42.664;23.372;2023-05-09T03:31:42;95067.28;;;12.47;96.81
6136;BME280;24008;42.664;23.372;2023-05-09T03:34:09;94987.59;;;11.95;97.35
6136;BME280;24008;42.664;23.372;2023-05-09T03:36:39;95074.22;;;12.37;97.85
6136;BME280;24008;42.664;23.372;2023-05-09T03:39:06;95063.69;;;12.12;98.36
6136;BME280;24008;42.664;23.372;2023-05-09T03:41:34;94945.50;;;11.33;98.63
6136;BME280;24008;42.664;23.372;2023-05-09T03:44:03;95072.31;;;12.11;98.80
6136;BME280;24008;42.664;23.372;2023-05-09T03:46:30;95017.84;;;11.72;98.81
6136;BME280;24008;42.664;23.372;2023-05-09T03:48:57;95069.03;;;11.92;99.62
6136;BME280;24008;42.664;23.372;2023-05-09T03:51:24;95076.28;;;11.96;100.00
6136;BME280;24008;42.664;23.372;2023-05-09T03:53:50;95057.88;;;11.83;100.00
6136;BME280;24008;42.664;23.372;2023-05-09T03:56:17;95073.34;;;11.91;100.00
6136;BME280;24008;42.664;23.372;2023-05-09T03:58:44;95076.59;;;11.93;100.00
6136;BME280;24008;42.664;23.372;2023-05-09T04:01:12;95074.38;;;11.98;100.00
6136;BME280;24008;42.664;23.372;2023-05-09T04:03:39;95080.56;;;12.05;100.00
6136;BME280;24008;42.664;23.372;2023-05-09T04:06:06;95072.84;;;12.15;100.00
6136;BME280;24008;42.664;23.372;2023-05-09T04:08:33;95032.09;;;11.94;100.00
6136;BME280;24008;42.664;23.372;2023-05-09T04:11:00;95077.97;;;12.15;98.98
6136;BME280;24008;42.664;23.372;2023-05-09T04:13:27;95074.31;;;12.17;98.65
6136;BME280;24008;42.664;23.372;2023-05-09T04:15:54;94849.72;;;10.71;98.29
6136;BME280;24008;42.664;23.372;2023-05-09T04:18:22;95073.94;;;12.12;99.59
6136;BME280;24008;42.664;23.372;2023-05-09T04:20:49;95078.66;;;12.17;99.88
6136;BME280;24008;42.664;23.372;2023-05-09T04:23:15;95074.81;;;12.31;99.83
6136;BME280;24008;42.664;23.372;2023-05-09T04:25:42;95064.91;;;12.36;98.77
6136;BME280;24008;42.664;23.372;2023-05-09T04:28:09;95080.00;;;12.66;97.42
6136;BME280;24008;42.664;23.372;2023-05-09T04:30:36;95083.91;;;12.88;95.42
6136;BME280;24008;42.664;23.372;2023-05-09T04:33:03;95089.97;;;13.05;93.88
6136;BME280;24008;42.664;23.372;2023-05-09T04:35:31;95026.03;;;12.93;91.56
6136;BME280;24008;42.664;23.372;2023-05-09T04:37:57;95086.97;;;13.70;90.83
6136;BME280;24008;42.664;23.372;2023-05-09T04:40:25;95082.66;;;14.81;84.73
6136;BME280;24008;42.664;23.372;2023-05-09T04:42:51;95052.44;;;15.72;78.19
6136;BME280;24008;42.664;23.372;2023-05-09T04:45:18;95085.84;;;16.91;72.80
6136;BME280;24008;42.664;23.372;2023-05-09T04:47:45;95084.03;;;17.45;68.99
6136;BME280;24008;42.664;23.372;2023-05-09T04:50:12;95077.53;;;17.87;66.57
6136;BME280;24008;42.664;23.372;2023-05-09T04:52:40;95057.91;;;18.36;63.38
6136;BME280;24008;42.664;23.372;2023-05-09T04:55:07;95074.41;;;18.65;60.81
6136;BME280;24008;42.664;23.372;2023-05-09T04:57:35;95021.88;;;17.91;60.69
6136;BME280;24008;42.664;23.372;2023-05-09T05:00:02;95097.19;;;18.11;61.73
6136;BME280;24008;42.664;23.372;2023-05-09T05:02:33;95089.28;;;17.89;61.21
6136;BME280;24008;42.664;23.372;2023-05-09T05:05:01;95034.50;;;16.96;62.90
6136;BME280;24008;42.664;23.372;2023-05-09T05:07:27;95088.56;;;16.67;65.53
6136;BME280;24008;42.664;23.372;2023-05-09T05:09:55;95052.53;;;15.95;67.98
6136;BME280;24008;42.664;23.372;2023-05-09T05:12:22;95085.13;;;15.47;69.27
6136;BME280;24008;42.664;23.372;2023-05-09T05:14:49;95087.16;;;14.87;72.29
6136;BME280;24008;42.664;23.372;2023-05-09T05:17:16;95045.81;;;14.22;74.11
6136;BME280;24008;42.664;23.372;2023-05-09T05:19:42;95057.47;;;14.00;76.76
6136;BME280;24008;42.664;23.372;2023-05-09T05:22:09;95020.31;;;13.61;78.35
6136;BME280;24008;42.664;23.372;2023-05-09T05:24:36;95090.00;;;13.92;79.10
6136;BME280;24008;42.664;23.372;2023-05-09T05:27:04;95090.09;;;13.82;79.56
6136;BME280;24008;42.664;23.372;2023-05-09T05:29:31;95090.47;;;13.61;80.41
6136;BME280;24008;42.664;23.372;2023-05-09T05:31:57;95076.53;;;13.46;81.23
6136;BME280;24008;42.664;23.372;2023-05-09T05:34:24;95066.22;;;13.38;81.33
6136;BME280;24008;42.664;23.372;2023-05-09T05:36:51;95096.34;;;13.54;79.92
6136;BME280;24008;42.664;23.372;2023-05-09T05:39:18;95094.28;;;13.57;80.31
6136;BME280;24008;42.664;23.372;2023-05-09T05:41:44;95098.47;;;13.58;80.55
6136;BME280;24008;42.664;23.372;2023-05-09T05:44:12;95089.28;;;13.56;81.21
6136;BME280;24008;42.664;23.372;2023-05-09T05:46:39;95090.09;;;13.56;81.94
6136;BME280;24008;42.664;23.372;2023-05-09T05:49:06;95093.94;;;13.52;81.01
6136;BME280;24008;42.664;23.372;2023-05-09T05:51:33;95086.88;;;13.54;81.15
6136;BME280;24008;42.664;23.372;2023-05-09T05:53:59;95092.72;;;13.64;80.16
6136;BME280;24008;42.664;23.372;2023-05-09T05:56:29;94960.47;;;12.91;79.71
6136;BME280;24008;42.664;23.372;2023-05-09T05:58:57;95098.63;;;13.83;79.15
6136;BME280;24008;42.664;23.372;2023-05-09T06:01:25;95100.28;;;13.92;79.16
6136;BME280;24008;42.664;23.372;2023-05-09T06:03:52;95039.69;;;13.55;77.65
6136;BME280;24008;42.664;23.372;2023-05-09T06:06:20;95091.72;;;14.09;77.20
6136;BME280;24008;42.664;23.372;2023-05-09T06:08:47;94997.19;;;13.61;77.22
6136;BME280;24008;42.664;23.372;2023-05-09T06:11:15;95091.47;;;14.28;77.14
6136;BME280;24008;42.664;23.372;2023-05-09T06:13:42;95034.09;;;13.86;77.76
6136;BME280;24008;42.664;23.372;2023-05-09T06:16:09;95099.81;;;14.30;77.67
6136;BME280;24008;42.664;23.372;2023-05-09T06:18:37;95015.34;;;13.67;77.98
6136;BME280;24008;42.664;23.372;2023-05-09T06:21:04;95045.72;;;13.98;78.11
6136;BME280;24008;42.664;23.372;2023-05-09T06:23:31;95026.72;;;13.91;77.30
6136;BME280;24008;42.664;23.372;2023-05-09T06:25:58;95064.66;;;13.97;75.73
6136;BME280;24008;42.664;23.372;2023-05-09T06:28:25;95097.78;;;14.00;74.98
6136;BME280;24008;42.664;23.372;2023-05-09T06:30:51;95063.81;;;13.62;75.45
6136;BME280;24008;42.664;23.372;2023-05-09T06:33:18;95091.66;;;14.01;76.20
6136;BME280;24008;42.664;23.372;2023-05-09T06:35:46;95049.47;;;14.62;72.33
6136;BME280;24008;42.664;23.372;2023-05-09T06:38:13;95082.69;;;14.97;71.25
6136;BME280;24008;42.664;23.372;2023-05-09T06:40:40;95102.97;;;15.00;70.20
6136;BME280;24008;42.664;23.372;2023-05-09T06:43:06;95098.75;;;14.91;71.01
6136;BME280;24008;42.664;23.372;2023-05-09T06:45:33;95046.72;;;14.47;70.22
6136;BME280;24008;42.664;23.372;2023-05-09T06:48:00;95022.16;;;14.11;68.07
6136;BME280;24008;42.664;23.372;2023-05-09T06:50:27;95098.69;;;14.59;68.79
6136;BME280;24008;42.664;23.372;2023-05-09T06:52:55;95081.97;;;14.63;69.67
6136;BME280;24008;42.664;23.372;2023-05-09T06:55:22;95090.19;;;14.66;70.78
6136;BME280;24008;42.664;23.372;2023-05-09T06:57:49;95047.28;;;14.25;69.77
6136;BME280;24008;42.664;23.372;2023-05-09T07:00:16;95095.78;;;14.62;69.03
6136;BME280;24008;42.664;23.372;2023-05-09T07:02:43;95092.09;;;14.64;69.12
6136;BME280;24008;42.664;23.372;2023-05-09T07:05:10;95102.91;;;14.68;69.23
6136;BME280;24008;42.664;23.372;2023-05-09T07:07:36;95037.59;;;14.19;70.39
6136;BME280;24008;42.664;23.372;2023-05-09T07:10:06;95037.00;;;14.25;71.48
6136;BME280;24008;42.664;23.372;2023-05-09T07:12:34;95035.19;;;14.25;71.04
6136;BME280;24008;42.664;23.372;2023-05-09T07:15:01;95079.09;;;14.66;71.38
6136;BME280;24008;42.664;23.372;2023-05-09T07:17:27;95090.03;;;14.76;68.77
6136;BME280;24008;42.664;23.372;2023-05-09T07:19:54;95089.38;;;14.74;68.18
6136;BME280;24008;42.664;23.372;2023-05-09T07:22:21;95089.44;;;14.82;67.38
6136;BME280;24008;42.664;23.372;2023-05-09T07:24:48;95026.00;;;14.49;68.29
6136;BME280;24008;42.664;23.372;2023-05-09T07:27:16;95091.38;;;14.96;67.67
6136;BME280;24008;42.664;23.372;2023-05-09T07:29:43;94948.75;;;14.16;67.30
6136;BME280;24008;42.664;23.372;2023-05-09T07:32:10;95082.72;;;15.05;67.50
6136;BME280;24008;42.664;23.372;2023-05-09T07:34:36;95002.81;;;14.40;66.43
6136;BME280;24008;42.664;23.372;2023-05-09T07:37:03;95086.53;;;14.85;66.96
6136;BME280;24008;42.664;23.372;2023-05-09T07:39:30;95087.16;;;14.79;67.83
6136;BME280;24008;42.664;23.372;2023-05-09T07:41:57;95040.28;;;14.51;68.30
6136;BME280;24008;42.664;23.372;2023-05-09T07:44:25;94942.56;;;13.93;67.51
6136;BME280;24008;42.664;23.372;2023-05-09T07:46:51;94998.91;;;14.28;68.40
6136;BME280;24008;42.664;23.372;2023-05-09T07:49:19;94728.75;;;12.48;69.07
6136;BME280;24008;42.664;23.372;2023-05-09T07:51:46;95105.53;;;14.84;68.46
6136;BME280;24008;42.664;23.372;2023-05-09T07:54:13;94950.41;;;13.83;68.89
6136;BME280;24008;42.664;23.372;2023-05-09T07:56:40;95064.75;;;14.63;68.76
6136;BME280;24008;42.664;23.372;2023-05-09T07:59:07;94995.28;;;14.05;69.84
6136;BME280;24008;42.664;23.372;2023-05-09T08:01:35;95096.28;;;14.73;68.76
6136;BME280;24008;42.664;23.372;2023-05-09T08:04:02;95010.78;;;14.21;69.08
6136;BME280;24008;42.664;23.372;2023-05-09T08:06:30;95037.06;;;14.49;68.39
6136;BME280;24008;42.664;23.372;2023-05-09T08:08:57;95083.97;;;14.85;67.94
6136;BME280;24008;42.664;23.372;2023-05-09T08:11:24;95005.09;;;14.44;67.48
6136;BME280;24008;42.664;23.372;2023-05-09T08:13:52;94991.84;;;14.30;66.36
6136;BME280;24008;42.664;23.372;2023-05-09T08:16:19;95043.25;;;14.72;67.19
6136;BME280;24008;42.664;23.372;2023-05-09T08:18:48;94944.31;;;14.51;65.85
6136;BME280;24008;42.664;23.372;2023-05-09T08:21:14;95089.16;;;15.74;65.14
6136;BME280;24008;42.664;23.372;2023-05-09T08:23:41;95054.69;;;15.75;63.95
6136;BME280;24008;42.664;23.372;2023-05-09T08:26:08;95062.19;;;16.01;62.43
6136;BME280;24008;42.664;23.372;2023-05-09T08:28:35;95091.91;;;16.36;62.04
6136;BME280;24008;42.664;23.372;2023-05-09T08:31:02;95086.63;;;16.91;61.86
6136;BME280;24008;42.664;23.372;2023-05-09T08:33:28;94990.78;;;16.95;59.12
6136;BME280;24008;42.664;23.372;2023-05-09T08:35:57;95094.84;;;17.26;59.09
6136;BME280;24008;42.664;23.372;2023-05-09T08:38:24;94990.84;;;16.86;60.22
6136;BME280;24008;42.664;23.372;2023-05-09T08:41:15;95085.56;;;18.36;56.54
6136;BME280;24008;42.664;23.372;2023-05-09T08:43:51;95068.84;;;19.25;53.73
6136;BME280;24008;42.664;23.372;2023-05-09T08:46:24;94729.06;;;17.17;51.69
6136;BME280;24008;42.664;23.372;2023-05-09T08:48:53;95084.09;;;19.56;51.57
6136;BME280;24008;42.664;23.372;2023-05-09T08:51:22;95093.28;;;18.95;52.12
6136;BME280;24008;42.664;23.372;2023-05-09T08:53:50;95025.25;;;17.39;55.63
6136;BME280;24008;42.664;23.372;2023-05-09T08:56:17;95089.84;;;17.24;57.84
6136;BME280;24008;42.664;23.372;2023-05-09T08:58:44;95103.56;;;16.94;59.86
6136;BME280;24008;42.664;23.372;2023-05-09T09:01:12;95086.63;;;17.22;59.10
6136;BME280;24008;42.664;23.372;2023-05-09T09:03:39;95002.59;;;16.66;58.14
6136;BME280;24008;42.664;23.372;2023-05-09T09:06:12;95085.47;;;16.71;60.33
6136;BME280;24008;42.664;23.372;2023-05-09T09:08:40;95086.44;;;16.78;61.03
6136;BME280;24008;42.664;23.372;2023-05-09T09:11:09;95093.16;;;17.10;59.26
6136;BME280;24008;42.664;23.372;2023-05-09T09:13:39;95039.94;;;16.47;60.03
6136;BME280;24008;42.664;23.372;2023-05-09T09:16:08;95099.19;;;17.25;58.97
6136;BME280;24008;42.664;23.372;2023-05-09T09:18:36;95094.69;;;17.65;56.84
6136;BME280;24008;42.664;23.372;2023-05-09T09:21:05;95086.91;;;18.03;55.50
6136;BME280;24008;42.664;23.372;2023-05-09T09:23:33;94739.09;;;15.32;56.57
6136;BME280;24008;42.664;23.372;2023-05-09T09:26:02;95088.63;;;16.89;59.10
6136;BME280;24008;42.664;23.372;2023-05-09T09:28:29;95047.94;;;15.01;61.88
6136;BME280;24008;42.664;23.372;2023-05-09T09:30:56;95088.19;;;15.27;65.43
6136;BME280;24008;42.664;23.372;2023-05-09T09:33:25;95093.47;;;15.01;67.89
6136;BME280;24008;42.664;23.372;2023-05-09T09:35:52;95038.41;;;14.69;67.68
6136;BME280;24008;42.664;23.372;2023-05-09T09:38:21;95068.84;;;14.90;67.61
6136;BME280;24008;42.664;23.372;2023-05-09T09:40:48;95098.78;;;14.99;67.50
6136;BME280;24008;42.664;23.372;2023-05-09T09:43:19;95102.31;;;14.90;67.07
6136;BME280;24008;42.664;23.372;2023-05-09T09:45:47;95070.75;;;14.72;67.78
6136;BME280;24008;42.664;23.372;2023-05-09T09:48:14;95089.13;;;15.01;68.31
6136;BME280;24008;42.664;23.372;2023-05-09T09:50:41;95097.66;;;15.10;67.09
6136;BME280;24008;42.664;23.372;2023-05-09T09:53:08;95096.38;;;15.22;66.76
6136;BME280;24008;42.664;23.372;2023-05-09T09:55:35;95090.75;;;15.27;66.84
6136;BME280;24008;42.664;23.372;2023-05-09T09:58:14;95095.56;;;15.22;67.43
6136;BME280;24008;42.664;23.372;2023-05-09T10:00:43;95077.25;;;15.25;66.69
6136;BME280;24008;42.664;23.372;2023-05-09T10:03:13;95058.09;;;15.19;66.07
6136;BME280;24008;42.664;23.372;2023-05-09T10:05:41;95089.81;;;15.44;65.97
6136;BME280;24008;42.664;23.372;2023-05-09T10:08:08;95087.25;;;15.68;65.55
6136;BME280;24008;42.664;23.372;2023-05-09T10:10:36;95040.78;;;16.40;63.40
6136;BME280;24008;42.664;23.372;2023-05-09T10:13:05;95059.59;;;17.10;59.63
6136;BME280;24008;42.664;23.372;2023-05-09T10:15:34;95044.06;;;16.65;60.93
6136;BME280;24008;42.664;23.372;2023-05-09T10:18:03;95094.59;;;16.51;62.81
6136;BME280;24008;42.664;23.372;2023-05-09T10:20:33;95085.44;;;16.40;62.79
6136;BME280;24008;42.664;23.372;2023-05-09T10:23:01;95058.38;;;16.67;61.47
6136;BME280;24008;42.664;23.372;2023-05-09T10:25:37;95060.09;;;16.83;60.54
6136;BME280;24008;42.664;23.372;2023-05-09T10:28:10;95092.75;;;16.60;62.04
6136;BME280;24008;42.664;23.372;2023-05-09T10:30:51;95058.50;;;15.96;63.74
6136;BME280;24008;42.664;23.372;2023-05-09T10:33:25;95085.63;;;15.67;65.62
6136;BME280;24008;42.664;23.372;2023-05-09T10:35:57;95077.25;;;15.65;65.70
6136;BME280;24008;42.664;23.372;2023-05-09T10:38:24;95060.66;;;15.52;66.09
6136;BME280;24008;42.664;23.372;2023-05-09T10:40:52;95078.53;;;15.53;66.26
6136;BME280;24008;42.664;23.372;2023-05-09T10:43:19;95055.03;;;15.24;67.20
6136;BME280;24008;42.664;23.372;2023-05-09T10:45:48;95074.97;;;15.38;67.28
6136;BME280;24008;42.664;23.372;2023-05-09T10:48:16;95041.66;;;15.04;66.99
6136;BME280;24008;42.664;23.372;2023-05-09T10:50:45;95078.03;;;15.17;66.34
6136;BME280;24008;42.664;23.372;2023-05-09T10:53:12;95080.28;;;15.04;68.29
6136;BME280;24008;42.664;23.372;2023-05-09T10:55:48;95062.88;;;14.98;68.50
6136;BME280;24008;42.664;23.372;2023-05-09T10:58:23;95049.22;;;14.81;68.07
6136;BME280;24008;42.664;23.372;2023-05-09T11:00:51;95071.72;;;14.79;69.88
6136;BME280;24008;42.664;23.372;2023-05-09T11:03:18;95089.78;;;15.11;69.60
6136;BME280;24008;42.664;23.372;2023-05-09T11:05:50;95059.50;;;14.81;69.52
6136;BME280;24008;42.664;23.372;2023-05-09T11:08:18;95085.94;;;15.07;68.52
6136;BME280;24008;42.664;23.372;2023-05-09T11:10:45;95095.84;;;14.86;67.97
6136;BME280;24008;42.664;23.372;2023-05-09T11:13:13;95080.09;;;14.89;68.16
6136;BME280;24008;42.664;23.372;2023-05-09T11:16:07;95085.13;;;15.07;68.50
6136;BME280;24008;42.664;23.372;2023-05-09T11:18:33;95052.13;;;14.94;68.49
6136;BME280;24008;42.664;23.372;2023-05-09T11:21:07;95022.94;;;14.61;68.27
6136;BME280;24008;42.664;23.372;2023-05-09T11:23:34;95094.25;;;14.85;68.03
6136;BME280;24008;42.664;23.372;2023-05-09T11:26:05;95069.44;;;14.60;68.34
6136;BME280;24008;42.664;23.372;2023-05-09T11:28:34;95080.09;;;14.73;68.30
6136;BME280;24008;42.664;23.372;2023-05-09T11:31:09;94870.50;;;13.18;69.08
6136;BME280;24008;42.664;23.372;2023-05-09T11:33:36;95078.59;;;14.20;70.17
6136;BME280;24008;42.664;23.372;2023-05-09T11:36:26;95060.09;;;14.17;71.48
6136;BME280;24008;42.664;23.372;2023-05-09T11:39:02;95082.59;;;14.57;70.83
6136;BME280;24008;42.664;23.372;2023-05-09T11:41:34;95057.81;;;14.48;70.23
6136;BME280;24008;42.664;23.372;2023-05-09T11:44:11;95022.63;;;14.14;69.39
6136;BME280;24008;42.664;23.372;2023-05-09T11:46:38;95051.00;;;14.38;69.99
6136;BME280;24008;42.664;23.372;2023-05-09T11:49:05;95020.28;;;13.87;70.71
6136;BME280;24008;42.664;23.372;2023-05-09T11:51:36;95090.84;;;14.34;70.95
6136;BME280;24008;42.664;23.372;2023-05-09T11:54:03;95089.47;;;14.14;71.21
6136;BME280;24008;42.664;23.372;2023-05-09T11:56:31;95092.50;;;14.10;71.26
6136;BME280;24008;42.664;23.372;2023-05-09T11:58:58;94993.81;;;13.34;72.10
6136;BME280;24008;42.664;23.372;2023-05-09T12:01:27;95092.22;;;13.87;72.50
6136;BME280;24008;42.664;23.372;2023-05-09T12:03:54;95084.72;;;13.93;73.05
6136;BME280;24008;42.664;23.372;2023-05-09T12:06:20;95094.28;;;14.09;71.78
6136;BME280;24008;42.664;23.372;2023-05-09T12:08:49;94846.50;;;12.68;71.88
6136;BME280;24008;42.664;23.372;2023-05-09T12:11:15;95080.22;;;14.29;71.07
6136;BME280;24008;42.664;23.372;2023-05-09T12:13:46;95050.06;;;14.05;71.70
6136;BME280;24008;42.664;23.372;2023-05-09T12:16:14;95043.94;;;13.98;71.04
6136;BME280;24008;42.664;23.372;2023-05-09T12:18:45;95081.94;;;14.13;71.68
6136;BME280;24008;42.664;23.372;2023-05-09T12:21:12;94998.44;;;13.31;72.01
6136;BME280;24008;42.664;23.372;2023-05-09T12:23:42;95056.53;;;13.32;73.77
6136;BME280;24008;42.664;23.372;2023-05-09T12:26:10;95090.78;;;13.41;75.31
6136;BME280;24008;42.664;23.372;2023-05-09T12:28:38;95090.88;;;13.31;76.07
6136;BME280;24008;42.664;23.372;2023-05-09T12:31:05;95097.75;;;13.13;76.73
6136;BME280;24008;42.664;23.372;2023-05-09T12:33:32;95079.63;;;12.96;78.10
6136;BME280;24008;42.664;23.372;2023-05-09T12:36:02;95079.69;;;12.69;79.18
6136;BME280;24008;42.664;23.372;2023-05-09T12:38:30;95081.03;;;12.73;80.12
6136;BME280;24008;42.664;23.372;2023-05-09T12:41:00;95057.88;;;12.65;80.30
6136;BME280;24008;42.664;23.372;2023-05-09T12:43:30;94955.81;;;11.88;80.23
6136;BME280;24008;42.664;23.372;2023-05-09T12:45:58;95080.84;;;12.57;81.09
6136;BME280;24008;42.664;23.372;2023-05-09T12:48:25;95048.69;;;12.17;82.37
6136;BME280;24008;42.664;23.372;2023-05-09T12:50:52;95094.63;;;12.29;83.72
6136;BME280;24008;42.664;23.372;2023-05-09T12:53:26;95045.78;;;12.03;83.83
6136;BME280;24008;42.664;23.372;2023-05-09T12:55:55;95079.00;;;12.22;84.45
6136;BME280;24008;42.664;23.372;2023-05-09T12:58:29;95067.59;;;12.16;85.09
6136;BME280;24008;42.664;23.372;2023-05-09T13:00:57;95051.47;;;11.97;85.80
6136;BME280;24008;42.664;23.372;2023-05-09T13:03:25;94978.88;;;11.41;86.09
6136;BME280;24008;42.664;23.372;2023-05-09T13:05:58;95065.75;;;11.99;86.79